createdAt,value
2023-05-19T00:00:50.042Z,8.93
2023-05-19T00:03:33.831Z,9.30
2023-05-19T00:06:14.676Z,10.00
2023-05-19T00:09:01.140Z,9.83
2023-05-19T00:11:41.859Z,9.70
2023-05-19T00:14:22.548Z,9.63
2023-05-19T00:17:03.449Z,9.07
2023-05-19T00:19:45.152Z,8.90
2023-05-19T00:22:25.944Z,8.93
2023-05-19T00:25:07.433Z,9.10
2023-05-19T00:27:48.153Z,7.93
2023-05-19T00:30:30.195Z,7.97
2023-05-19T00:33:10.985Z,8.50
2023-05-19T00:35:51.584Z,8.73
2023-05-19T00:38:33.393Z,8.43
2023-05-19T00:41:13.695Z,8.80
2023-05-19T00:43:54.272Z,9.00
2023-05-19T00:46:34.551Z,9.27
2023-05-19T00:49:15.219Z,8.30
2023-05-19T00:51:56.165Z,9.20
2023-05-19T00:54:36.780Z,7.83
2023-05-19T00:57:17.568Z,8.50
2023-05-19T00:59:58.255Z,7.90
2023-05-19T01:02:40.087Z,8.73
2023-05-19T01:05:21.547Z,8.60
2023-05-19T01:08:02.396Z,9.00
2023-05-19T01:10:42.554Z,8.47
2023-05-19T01:13:23.585Z,8.63
2023-05-19T01:16:14.265Z,8.87
2023-05-19T01:19:10.931Z,8.53
2023-05-19T01:22:13.113Z,8.23
2023-05-19T01:25:30.729Z,8.30
2023-05-19T01:28:48.030Z,8.03
2023-05-19T01:31:29.093Z,8.23
2023-05-19T01:34:13.084Z,8.57
2023-05-19T01:36:56.013Z,8.30
2023-05-19T01:39:37.396Z,8.37
2023-05-19T01:42:18.594Z,8.07
2023-05-19T01:44:58.969Z,8.80
2023-05-19T01:47:44.370Z,8.43
2023-05-19T01:50:25.154Z,8.25
2023-05-19T01:53:05.880Z,8.03
2023-05-19T01:55:54.464Z,8.63
2023-05-19T01:58:45.426Z,8.63
2023-05-19T02:01:53.352Z,8.00
2023-05-19T02:04:50.656Z,8.73
2023-05-19T02:08:01.188Z,8.60
2023-05-19T02:10:50.299Z,9.30
2023-05-19T02:13:37.861Z,9.00
2023-05-19T02:16:21.914Z,7.80
2023-05-19T02:19:02.111Z,8.83
2023-05-19T02:21:42.190Z,8.37
2023-05-19T02:24:23.078Z,7.97
2023-05-19T02:27:03.916Z,8.40
2023-05-19T02:29:44.252Z,8.77
2023-05-19T02:32:24.881Z,8.10
2023-05-19T02:35:06.180Z,8.13
2023-05-19T02:37:46.714Z,8.43
2023-05-19T02:40:27.855Z,9.13
2023-05-19T02:43:08.633Z,8.43
2023-05-19T02:45:48.796Z,8.47
2023-05-19T02:48:29.128Z,8.80
2023-05-19T02:51:09.626Z,8.03
2023-05-19T02:53:50.496Z,8.73
2023-05-19T02:56:31.000Z,8.47
2023-05-19T02:59:11.306Z,8.00
2023-05-19T03:01:56.588Z,8.33
2023-05-19T03:04:41.794Z,8.18
2023-05-19T03:07:25.312Z,8.23
2023-05-19T03:10:08.365Z,8.57
2023-05-19T03:12:48.917Z,7.97
2023-05-19T03:15:29.320Z,8.53
2023-05-19T03:18:09.621Z,7.80
2023-05-19T03:20:50.335Z,7.13
2023-05-19T03:23:30.952Z,8.20
2023-05-19T03:26:11.197Z,8.27
2023-05-19T03:28:51.814Z,7.93
2023-05-19T03:31:33.029Z,8.03
2023-05-19T03:34:13.514Z,8.50
2023-05-19T03:36:53.854Z,8.27
2023-05-19T03:39:35.090Z,8.60
2023-05-19T03:42:16.349Z,7.43
2023-05-19T03:44:56.821Z,8.57
2023-05-19T03:47:37.203Z,8.23
2023-05-19T03:50:29.107Z,8.50
2023-05-19T03:53:23.000Z,7.70
2023-05-19T03:56:03.572Z,7.73
2023-05-19T03:58:45.033Z,8.47
2023-05-19T04:01:25.074Z,8.90
2023-05-19T04:04:05.414Z,8.40
2023-05-19T04:06:47.005Z,7.80
2023-05-19T04:09:27.832Z,8.07
2023-05-19T04:12:08.838Z,8.73
2023-05-19T04:14:49.440Z,8.27
2023-05-19T04:17:30.097Z,7.83
2023-05-19T04:20:11.440Z,8.03
2023-05-19T04:22:51.838Z,8.00
2023-05-19T04:25:32.246Z,7.50
2023-05-19T04:28:12.963Z,8.40
2023-05-19T04:30:53.347Z,8.13
2023-05-19T04:33:33.981Z,8.83
2023-05-19T04:36:14.465Z,7.97
2023-05-19T04:39:02.819Z,8.17
2023-05-19T04:41:45.159Z,8.03
2023-05-19T04:44:26.368Z,7.43
2023-05-19T04:47:09.101Z,8.00
2023-05-19T04:49:49.370Z,7.70
2023-05-19T04:52:29.722Z,7.50
2023-05-19T04:55:11.412Z,8.70
2023-05-19T04:57:51.944Z,8.17
2023-05-19T05:00:35.690Z,7.97
2023-05-19T05:03:19.216Z,8.47
2023-05-19T05:05:59.937Z,8.23
2023-05-19T05:08:41.445Z,7.87
2023-05-19T05:11:22.682Z,8.53
2023-05-19T05:14:03.499Z,8.33
2023-05-19T05:16:44.724Z,7.57
2023-05-19T05:19:29.448Z,7.68
2023-05-19T05:22:10.650Z,8.23
2023-05-19T05:24:53.834Z,7.57
2023-05-19T05:27:34.122Z,7.83
2023-05-19T05:30:14.906Z,8.27
2023-05-19T05:32:55.809Z,8.73
2023-05-19T05:35:47.504Z,8.37
2023-05-19T05:38:28.295Z,9.03
2023-05-19T05:41:08.470Z,8.27
2023-05-19T05:43:50.447Z,8.40
2023-05-19T05:46:32.633Z,8.13
2023-05-19T05:49:13.551Z,8.20
2023-05-19T05:52:05.577Z,8.20
2023-05-19T05:54:53.782Z,8.27
2023-05-19T05:57:37.418Z,8.10
2023-05-19T06:00:19.426Z,7.90
2023-05-19T06:03:05.888Z,7.90
2023-05-19T06:05:46.463Z,7.53
2023-05-19T06:08:26.465Z,8.43
2023-05-19T06:11:09.556Z,7.53
2023-05-19T06:13:52.170Z,7.07
2023-05-19T06:16:50.382Z,7.37
2023-05-19T06:19:32.446Z,7.13
2023-05-19T06:22:12.995Z,7.43
2023-05-19T06:24:53.138Z,7.10
2023-05-19T06:27:34.726Z,7.10
2023-05-19T06:30:16.287Z,7.17
2023-05-19T06:33:28.227Z,7.33
2023-05-19T06:36:10.639Z,6.67
2023-05-19T06:38:53.003Z,6.63
2023-05-19T06:41:34.596Z,6.17
2023-05-19T06:44:15.011Z,7.33
2023-05-19T06:46:58.224Z,6.70
2023-05-19T06:49:38.194Z,6.63
2023-05-19T06:52:18.444Z,6.60
2023-05-19T06:54:58.846Z,6.63
2023-05-19T06:57:39.253Z,6.77
2023-05-19T07:00:31.571Z,6.90
2023-05-19T07:03:12.347Z,7.27
2023-05-19T07:05:53.388Z,6.40
2023-05-19T07:08:34.527Z,6.07
2023-05-19T07:11:16.662Z,6.70
2023-05-19T07:13:57.164Z,6.53
2023-05-19T07:16:41.478Z,5.33
2023-05-19T07:19:21.829Z,6.13
2023-05-19T07:22:03.144Z,6.23
2023-05-19T07:24:43.271Z,5.80
2023-05-19T07:27:23.467Z,5.80
2023-05-19T07:30:04.443Z,6.00
2023-05-19T07:32:44.635Z,5.70
2023-05-19T07:35:26.402Z,5.70
2023-05-19T07:40:47.655Z,5.40
2023-05-19T07:43:27.947Z,5.53
2023-05-19T07:46:08.479Z,5.17
2023-05-19T07:48:49.130Z,6.07
2023-05-19T07:51:29.586Z,5.47
2023-05-19T07:54:09.762Z,5.87
2023-05-19T07:56:50.058Z,5.03
2023-05-19T07:59:31.400Z,5.10
2023-05-19T08:02:12.008Z,4.50
2023-05-19T08:04:53.190Z,4.83
2023-05-19T08:07:33.957Z,4.90
2023-05-19T08:10:14.151Z,4.40
2023-05-19T08:12:54.651Z,4.70
2023-05-19T08:15:37.621Z,4.80
2023-05-19T08:18:17.790Z,4.47
2023-05-19T08:20:57.969Z,3.93
2023-05-19T08:23:38.740Z,4.70
2023-05-19T08:26:19.193Z,5.00
2023-05-19T08:28:59.481Z,3.97
2023-05-19T08:31:40.035Z,3.93
2023-05-19T08:34:20.806Z,3.90
2023-05-19T08:37:01.531Z,3.80
2023-05-19T08:39:42.485Z,4.05
2023-05-19T08:42:22.993Z,3.38
2023-05-19T08:45:03.639Z,3.70
2023-05-19T08:47:47.275Z,3.65
2023-05-19T08:50:32.292Z,3.83
2023-05-19T08:53:33.709Z,3.42
2023-05-19T08:56:21.833Z,4.15
2023-05-19T08:59:04.146Z,3.03
2023-05-19T09:01:46.329Z,2.70
2023-05-19T09:04:29.920Z,2.90
2023-05-19T09:07:10.937Z,2.78
2023-05-19T09:09:50.908Z,3.63
2023-05-19T09:12:31.564Z,3.95
2023-05-19T09:15:12.940Z,3.35
2023-05-19T09:18:07.656Z,3.08
2023-05-19T09:20:47.904Z,3.40
2023-05-19T09:23:36.113Z,3.20
2023-05-19T09:26:16.615Z,3.65
2023-05-19T09:28:58.452Z,3.80
2023-05-19T09:31:39.080Z,3.28
2023-05-19T09:34:22.321Z,3.30
2023-05-19T09:37:02.447Z,2.70
2023-05-19T09:39:49.268Z,2.88
2023-05-19T09:42:30.177Z,2.47
2023-05-19T09:45:11.356Z,2.03
2023-05-19T09:47:51.590Z,2.80
2023-05-19T09:50:32.755Z,1.95
2023-05-19T09:53:15.063Z,2.40
2023-05-19T09:56:00.169Z,1.58
2023-05-19T09:58:42.977Z,1.92
2023-05-19T10:01:23.693Z,1.98
2023-05-19T10:04:05.969Z,1.90
2023-05-19T10:06:53.468Z,2.00
2023-05-19T10:09:36.338Z,2.10
2023-05-19T10:12:18.237Z,2.28
2023-05-19T10:14:59.721Z,2.40
2023-05-19T10:17:42.479Z,2.75
2023-05-19T10:20:23.191Z,1.88
2023-05-19T10:23:04.087Z,2.05
2023-05-19T10:25:44.870Z,1.92
2023-05-19T10:28:36.844Z,2.00
2023-05-19T10:31:23.125Z,2.45
2023-05-19T10:34:51.163Z,2.22
2023-05-19T10:37:41.758Z,2.53
2023-05-19T10:40:29.565Z,2.42
2023-05-19T10:43:26.022Z,2.30
2023-05-19T10:46:06.655Z,2.33
2023-05-19T10:48:46.965Z,2.20
2023-05-19T10:51:32.207Z,2.00
2023-05-19T10:54:15.959Z,2.00
2023-05-19T10:56:57.970Z,2.40
2023-05-19T10:59:39.289Z,2.20
2023-05-19T11:02:44.531Z,2.15
2023-05-19T11:05:29.930Z,2.00
2023-05-19T11:08:12.163Z,2.55
2023-05-19T11:10:52.738Z,2.38
2023-05-19T11:13:33.870Z,2.33
2023-05-19T11:16:14.853Z,2.53
2023-05-19T11:18:59.135Z,2.33
2023-05-19T11:21:49.239Z,2.42
2023-05-19T11:24:50.168Z,2.53
2023-05-19T11:27:33.314Z,2.30
2023-05-19T11:30:20.015Z,2.33
2023-05-19T11:33:00.660Z,2.20
2023-05-19T11:35:43.784Z,2.03
2023-05-19T11:38:24.665Z,2.40
2023-05-19T11:41:05.144Z,2.30
2023-05-19T11:43:47.923Z,2.28
2023-05-19T11:46:28.520Z,2.50
2023-05-19T11:49:09.461Z,2.40
2023-05-19T11:51:50.412Z,2.35
2023-05-19T11:54:33.048Z,2.92
2023-05-19T11:57:14.135Z,2.20
2023-05-19T11:59:56.749Z,2.55
2023-05-19T12:02:36.953Z,2.03
2023-05-19T12:05:28.015Z,3.33
2023-05-19T12:08:08.805Z,2.00
2023-05-19T12:10:50.914Z,2.40
2023-05-19T12:13:31.143Z,2.17
2023-05-19T12:16:11.602Z,2.40
2023-05-19T12:18:52.157Z,2.40
2023-05-19T12:21:34.357Z,2.13
2023-05-19T12:24:15.100Z,2.40
2023-05-19T12:27:19.682Z,2.38
2023-05-19T12:30:00.671Z,2.33
2023-05-19T12:32:41.441Z,2.10
2023-05-19T12:35:37.627Z,2.35
2023-05-19T12:38:20.943Z,2.53
2023-05-19T12:41:01.680Z,2.13
2023-05-19T12:43:42.332Z,2.47
2023-05-19T12:46:23.042Z,2.38
2023-05-19T12:49:03.593Z,2.58
2023-05-19T12:51:53.119Z,2.42
2023-05-19T12:54:34.447Z,2.35
2023-05-19T12:57:17.031Z,2.38
2023-05-19T13:00:20.771Z,2.40
2023-05-19T13:03:06.897Z,2.53
2023-05-19T13:05:50.442Z,2.80
2023-05-19T13:08:31.166Z,2.80
2023-05-19T13:11:11.392Z,2.88
2023-05-19T13:13:51.495Z,2.55
2023-05-19T13:16:31.782Z,2.50
2023-05-19T13:19:25.394Z,2.55
2023-05-19T13:22:06.287Z,2.85
2023-05-19T13:24:46.355Z,2.88
2023-05-19T13:27:26.669Z,2.15
2023-05-19T13:30:07.953Z,2.40
2023-05-19T13:32:48.412Z,2.60
2023-05-19T13:35:29.093Z,2.50
2023-05-19T13:38:10.450Z,2.55
2023-05-19T13:40:51.218Z,2.50
2023-05-19T13:43:31.712Z,2.92
2023-05-19T13:46:12.184Z,2.40
2023-05-19T13:48:52.762Z,2.65
2023-05-19T13:51:33.339Z,2.90
2023-05-19T13:54:13.623Z,2.60
2023-05-19T13:56:54.214Z,3.42
2023-05-19T13:59:36.073Z,2.63
2023-05-19T14:02:19.155Z,2.83
2023-05-19T14:04:59.564Z,2.85
2023-05-19T14:07:39.765Z,2.75
2023-05-19T14:10:20.795Z,3.75
2023-05-19T14:15:44.573Z,3.05
2023-05-19T14:18:24.856Z,3.13
2023-05-19T14:21:05.656Z,2.47
2023-05-19T14:23:46.461Z,2.92
2023-05-19T14:26:29.164Z,2.60
2023-05-19T14:29:09.703Z,2.88
2023-05-19T14:31:50.104Z,2.30
2023-05-19T14:34:30.965Z,2.97
2023-05-19T14:37:11.279Z,2.60
2023-05-19T14:39:51.410Z,2.63
2023-05-19T14:42:31.570Z,2.55
2023-05-19T14:45:12.158Z,2.97
2023-05-19T14:47:52.854Z,2.53
2023-05-19T14:50:33.648Z,2.30
2023-05-19T14:53:15.392Z,2.50
2023-05-19T14:55:55.996Z,2.50
2023-05-19T14:58:36.302Z,2.38
2023-05-19T15:01:16.696Z,2.30
2023-05-19T15:03:57.128Z,2.50
2023-05-19T15:06:37.536Z,2.20
2023-05-19T15:09:17.738Z,2.83
2023-05-19T15:12:01.291Z,2.63
2023-05-19T15:14:41.423Z,2.10
2023-05-19T15:17:22.180Z,2.60
2023-05-19T15:20:02.774Z,2.40
2023-05-19T15:22:43.119Z,2.30
2023-05-19T15:25:23.600Z,2.50
2023-05-19T15:28:04.028Z,2.15
2023-05-19T15:30:45.203Z,2.70
2023-05-19T15:33:25.701Z,2.00
2023-05-19T15:36:06.255Z,2.08
2023-05-19T15:38:46.783Z,2.30
2023-05-19T15:41:27.197Z,2.42
2023-05-19T15:44:07.762Z,2.20
2023-05-19T15:46:48.167Z,2.08
2023-05-19T15:49:28.804Z,2.53
2023-05-19T15:52:09.340Z,2.75
2023-05-19T15:54:49.770Z,2.45
2023-05-19T15:57:30.043Z,2.35
2023-05-19T16:00:11.967Z,2.53
2023-05-19T16:02:55.632Z,2.50
2023-05-19T16:05:35.870Z,2.33
2023-05-19T16:08:16.182Z,2.42
2023-05-19T16:10:56.679Z,2.33
2023-05-19T16:13:36.975Z,2.92
2023-05-19T16:16:17.220Z,3.00
2023-05-19T16:18:57.556Z,2.60
2023-05-19T16:21:37.760Z,2.42
2023-05-19T16:24:17.904Z,2.95
2023-05-19T16:26:58.375Z,2.42
2023-05-19T16:29:39.324Z,2.17
2023-05-19T16:32:19.598Z,2.10
2023-05-19T16:34:59.944Z,2.95
2023-05-19T16:37:40.407Z,2.42
2023-05-19T16:40:20.987Z,2.58
2023-05-19T16:43:01.302Z,2.63
2023-05-19T16:45:41.308Z,2.55
2023-05-19T16:48:21.632Z,2.17
2023-05-19T16:51:02.032Z,2.53
2023-05-19T16:53:42.221Z,2.30
2023-05-19T16:56:22.388Z,2.60
2023-05-19T16:59:02.748Z,2.20
2023-05-19T17:01:44.050Z,2.50
2023-05-19T17:04:24.592Z,2.25
2023-05-19T17:07:05.013Z,2.65
2023-05-19T17:09:45.422Z,2.40
2023-05-19T17:12:25.783Z,2.10
2023-05-19T17:15:07.185Z,2.45
2023-05-19T17:17:48.396Z,2.42
2023-05-19T17:20:29.062Z,2.38
2023-05-19T17:23:10.331Z,2.10
2023-05-19T17:25:55.542Z,2.42
2023-05-19T17:28:36.297Z,2.53
2023-05-19T17:31:17.153Z,2.40
2023-05-19T17:33:58.121Z,2.22
2023-05-19T17:36:38.494Z,2.28
2023-05-19T17:39:20.394Z,2.28
2023-05-19T17:42:02.082Z,2.20
2023-05-19T17:44:42.596Z,2.10
2023-05-19T17:47:23.126Z,2.22
2023-05-19T17:50:04.396Z,2.20
2023-05-19T17:52:45.166Z,2.10
2023-05-19T17:55:30.150Z,2.10
2023-05-19T17:58:11.477Z,2.00
2023-05-19T18:00:53.149Z,2.28
2023-05-19T18:03:35.323Z,2.15
2023-05-19T18:06:19.776Z,2.63
2023-05-19T18:09:01.249Z,2.40
2023-05-19T18:11:41.871Z,2.10
2023-05-19T18:14:22.688Z,2.10
2023-05-19T18:17:03.193Z,2.45
2023-05-19T18:19:43.562Z,2.30
2023-05-19T18:22:24.206Z,2.20
2023-05-19T18:25:05.591Z,2.22
2023-05-19T18:27:47.376Z,1.98
2023-05-19T18:30:28.234Z,2.05
2023-05-19T18:33:08.678Z,2.03
2023-05-19T18:35:49.107Z,1.98
2023-05-19T18:38:29.407Z,2.20
2023-05-19T18:41:09.827Z,1.92
2023-05-19T18:43:50.663Z,2.28
2023-05-19T18:46:31.380Z,2.65
2023-05-19T18:49:12.065Z,2.30
2023-05-19T18:51:52.782Z,2.63
2023-05-19T18:54:33.637Z,2.60
2023-05-19T18:57:14.680Z,2.58
2023-05-19T18:59:55.039Z,2.22
2023-05-19T19:02:35.328Z,2.28
2023-05-19T19:05:16.002Z,2.38
2023-05-19T19:07:56.457Z,2.15
2023-05-19T19:10:40.311Z,2.22
2023-05-19T19:13:21.125Z,2.42
2023-05-19T19:16:01.797Z,2.25
2023-05-19T19:18:42.846Z,2.40
2023-05-19T19:21:24.193Z,2.75
2023-05-19T19:24:05.628Z,2.95
2023-05-19T19:26:48.158Z,3.10
2023-05-19T19:29:28.508Z,2.75
2023-05-19T19:32:09.480Z,2.90
2023-05-19T19:34:49.917Z,2.60
2023-05-19T19:37:30.382Z,2.87
2023-05-19T19:40:11.524Z,3.17
2023-05-19T19:42:51.751Z,3.03
2023-05-19T19:45:34.832Z,2.53
2023-05-19T19:48:15.472Z,2.70
2023-05-19T19:50:58.822Z,2.80
2023-05-19T19:53:39.212Z,2.70
2023-05-19T19:56:19.569Z,2.60
2023-05-19T19:59:00.257Z,2.73
2023-05-19T20:01:40.881Z,2.70
2023-05-19T20:04:21.457Z,2.47
2023-05-19T20:07:02.141Z,2.90
2023-05-19T20:09:42.565Z,2.50
2023-05-19T20:12:22.956Z,2.80
2023-05-19T20:15:03.261Z,2.93
2023-05-19T20:17:43.747Z,2.60
2023-05-19T20:20:24.092Z,2.73
2023-05-19T20:23:04.556Z,2.60
2023-05-19T20:26:02.381Z,2.53
2023-05-19T20:28:45.671Z,2.53
2023-05-19T20:31:26.147Z,2.63
2023-05-19T20:34:06.405Z,3.00
2023-05-19T20:36:46.993Z,2.50
2023-05-19T20:39:27.684Z,2.67
2023-05-19T20:42:08.394Z,2.50
2023-05-19T20:44:50.178Z,2.83
2023-05-19T20:47:30.928Z,3.03
2023-05-19T20:50:11.652Z,3.00
2023-05-19T20:52:52.232Z,3.17
2023-05-19T20:55:32.749Z,3.27
2023-05-19T20:58:14.502Z,3.70
2023-05-19T21:00:57.554Z,2.60
2023-05-19T21:03:38.280Z,3.00
2023-05-19T21:06:18.459Z,2.70
2023-05-19T21:08:58.655Z,2.73
2023-05-19T21:11:39.245Z,2.50
2023-05-19T21:14:20.850Z,2.20
2023-05-19T21:17:01.073Z,2.60
2023-05-19T21:19:41.530Z,2.60
2023-05-19T21:22:21.563Z,2.40
2023-05-19T21:25:02.032Z,2.60
2023-05-19T21:27:42.552Z,2.57
2023-05-19T21:30:23.561Z,2.57
2023-05-19T21:33:04.492Z,2.70
2023-05-19T21:35:45.852Z,2.60
2023-05-19T21:38:27.668Z,3.13
2023-05-19T21:41:08.199Z,2.70
2023-05-19T21:43:48.485Z,2.83
2023-05-19T21:46:29.497Z,3.00
2023-05-19T21:49:10.141Z,2.77
2023-05-19T21:51:50.726Z,2.67
2023-05-19T21:54:32.431Z,2.80
2023-05-19T21:57:12.816Z,2.33
2023-05-19T21:59:53.269Z,3.00
2023-05-19T22:02:33.699Z,2.60
2023-05-19T22:05:14.286Z,2.60
2023-05-19T22:07:54.716Z,2.47
2023-05-19T22:10:37.291Z,2.93
2023-05-19T22:13:18.911Z,2.90
2023-05-19T22:15:59.647Z,2.60
2023-05-19T22:18:40.087Z,2.73
2023-05-19T22:21:20.603Z,2.50
2023-05-19T22:24:01.138Z,2.80
2023-05-19T22:26:42.880Z,2.53
2023-05-19T22:29:23.323Z,2.70
2023-05-19T22:32:11.726Z,2.47
2023-05-19T22:34:52.258Z,2.97
2023-05-19T22:37:32.477Z,2.70
2023-05-19T22:40:13.168Z,2.70
2023-05-19T22:42:53.725Z,2.80
2023-05-19T22:45:36.425Z,2.60
2023-05-19T22:48:17.328Z,3.17
2023-05-19T22:50:57.771Z,3.07
2023-05-19T22:53:38.104Z,2.80
2023-05-19T22:56:18.285Z,3.17
2023-05-19T22:58:59.451Z,3.03
2023-05-19T23:01:39.910Z,2.90
2023-05-19T23:04:20.592Z,3.00
2023-05-19T23:07:01.253Z,3.23
2023-05-19T23:09:41.829Z,3.10
2023-05-19T23:12:22.017Z,3.43
2023-05-19T23:15:02.851Z,3.53
2023-05-19T23:17:43.214Z,3.50
2023-05-19T23:20:23.437Z,3.40
2023-05-19T23:23:03.625Z,3.10
2023-05-19T23:25:43.827Z,3.40
2023-05-19T23:28:24.244Z,3.20
2023-05-19T23:31:05.017Z,3.00
2023-05-19T23:33:45.534Z,3.23
2023-05-19T23:36:26.159Z,3.40
2023-05-19T23:39:07.653Z,4.13
2023-05-19T23:41:47.770Z,3.60
2023-05-19T23:44:28.047Z,3.80
2023-05-19T23:47:08.451Z,3.70
2023-05-19T23:49:48.730Z,3.57
2023-05-19T23:52:29.056Z,3.90
2023-05-19T23:55:10.011Z,4.00
2023-05-19T23:57:50.543Z,3.60
